sensor_id;sensor_type;location;lat;lon;timestamp;P1;durP1;ratioP1;P2;durP2;ratioP2
16248;SDS011;8232;51.678;6.610;2022-10-16T00:01:24;7.68;;;4.50;;
16248;SDS011;8232;51.678;6.610;2022-10-16T00:03:52;7.57;;;4.75;;
16248;SDS011;8232;51.678;6.610;2022-10-16T00:06:20;6.65;;;4.57;;
16248;SDS011;8232;51.678;6.610;2022-10-16T00:08:47;8.25;;;4.30;;
16248;SDS011;8232;51.678;6.610;2022-10-16T00:11:17;9.02;;;4.40;;
16248;SDS011;8232;51.678;6.610;2022-10-16T00:13:46;8.35;;;4.18;;
16248;SDS011;8232;51.678;6.610;2022-10-16T00:16:16;7.75;;;4.63;;
16248;SDS011;8232;51.678;6.610;2022-10-16T00:18:43;9.13;;;4.30;;
16248;SDS011;8232;51.678;6.610;2022-10-16T00:21:11;6.80;;;3.97;;
16248;SDS011;8232;51.678;6.610;2022-10-16T00:23:38;7.78;;;4.00;;
16248;SDS011;8232;51.678;6.610;2022-10-16T00:26:06;8.75;;;4.43;;
16248;SDS011;8232;51.678;6.610;2022-10-16T00:28:37;9.10;;;4.57;;
16248;SDS011;8232;51.678;6.610;2022-10-16T00:31:04;5.68;;;3.75;;
16248;SDS011;8232;51.678;6.610;2022-10-16T00:33:32;5.78;;;4.03;;
16248;SDS011;8232;51.678;6.610;2022-10-16T00:35:59;8.73;;;4.53;;
16248;SDS011;8232;51.678;6.610;2022-10-16T00:38:26;11.80;;;3.97;;
16248;SDS011;8232;51.678;6.610;2022-10-16T00:40:53;9.23;;;4.25;;
16248;SDS011;8232;51.678;6.610;2022-10-16T00:43:34;8.10;;;4.10;;
16248;SDS011;8232;51.678;6.610;2022-10-16T00:46:05;8.40;;;4.03;;
16248;SDS011;8232;51.678;6.610;2022-10-16T00:48:38;7.10;;;4.00;;
16248;SDS011;8232;51.678;6.610;2022-10-16T00:51:05;7.70;;;4.05;;
16248;SDS011;8232;51.678;6.610;2022-10-16T00:53:33;4.93;;;3.65;;
16248;SDS011;8232;51.678;6.610;2022-10-16T00:56:01;6.53;;;4.20;;
16248;SDS011;8232;51.678;6.610;2022-10-16T00:58:29;10.25;;;3.92;;
16248;SDS011;8232;51.678;6.610;2022-10-16T01:00:57;8.25;;;3.70;;
16248;SDS011;8232;51.678;6.610;2022-10-16T01:03:26;7.63;;;3.70;;
16248;SDS011;8232;51.678;6.610;2022-10-16T01:05:57;4.68;;;3.50;;
16248;SDS011;8232;51.678;6.610;2022-10-16T01:08:47;10.27;;;3.45;;
16248;SDS011;8232;51.678;6.610;2022-10-16T01:11:22;5.22;;;3.38;;
16248;SDS011;8232;51.678;6.610;2022-10-16T01:13:53;5.85;;;3.30;;
16248;SDS011;8232;51.678;6.610;2022-10-16T01:16:27;5.95;;;3.25;;
16248;SDS011;8232;51.678;6.610;2022-10-16T01:19:00;9.02;;;3.30;;
16248;SDS011;8232;51.678;6.610;2022-10-16T01:21:32;6.55;;;3.28;;
16248;SDS011;8232;51.678;6.610;2022-10-16T01:24:06;8.68;;;3.53;;
16248;SDS011;8232;51.678;6.610;2022-10-16T01:26:59;5.57;;;3.28;;
16248;SDS011;8232;51.678;6.610;2022-10-16T01:29:34;4.18;;;3.50;;
16248;SDS011;8232;51.678;6.610;2022-10-16T01:32:08;7.97;;;3.50;;
16248;SDS011;8232;51.678;6.610;2022-10-16T01:34:42;5.43;;;3.00;;
16248;SDS011;8232;51.678;6.610;2022-10-16T01:37:15;4.72;;;3.42;;
16248;SDS011;8232;51.678;6.610;2022-10-16T01:39:45;5.25;;;2.95;;
16248;SDS011;8232;51.678;6.610;2022-10-16T01:42:18;5.68;;;2.70;;
16248;SDS011;8232;51.678;6.610;2022-10-16T01:44:48;4.13;;;3.05;;
16248;SDS011;8232;51.678;6.610;2022-10-16T01:47:17;3.60;;;3.00;;
16248;SDS011;8232;51.678;6.610;2022-10-16T01:49:47;3.78;;;2.55;;
16248;SDS011;8232;51.678;6.610;2022-10-16T01:52:16;3.85;;;2.80;;
16248;SDS011;8232;51.678;6.610;2022-10-16T01:54:47;4.57;;;2.95;;
16248;SDS011;8232;51.678;6.610;2022-10-16T01:57:19;4.95;;;2.63;;
16248;SDS011;8232;51.678;6.610;2022-10-16T01:59:48;3.20;;;2.58;;
16248;SDS011;8232;51.678;6.610;2022-10-16T02:02:19;4.55;;;2.78;;
16248;SDS011;8232;51.678;6.610;2022-10-16T02:04:49;6.38;;;2.75;;
16248;SDS011;8232;51.678;6.610;2022-10-16T02:07:24;2.65;;;2.33;;
16248;SDS011;8232;51.678;6.610;2022-10-16T02:09:51;5.93;;;2.45;;
16248;SDS011;8232;51.678;6.610;2022-10-16T02:12:21;4.35;;;2.03;;
16248;SDS011;8232;51.678;6.610;2022-10-16T02:14:51;3.38;;;2.35;;
16248;SDS011;8232;51.678;6.610;2022-10-16T02:17:20;3.38;;;2.50;;
16248;SDS011;8232;51.678;6.610;2022-10-16T02:19:47;2.50;;;2.30;;
16248;SDS011;8232;51.678;6.610;2022-10-16T02:22:19;7.95;;;2.55;;
16248;SDS011;8232;51.678;6.610;2022-10-16T02:24:54;4.35;;;2.45;;
16248;SDS011;8232;51.678;6.610;2022-10-16T02:27:26;4.88;;;2.90;;
16248;SDS011;8232;51.678;6.610;2022-10-16T02:29:59;3.13;;;2.15;;
16248;SDS011;8232;51.678;6.610;2022-10-16T02:32:33;4.68;;;2.05;;
16248;SDS011;8232;51.678;6.610;2022-10-16T02:35:02;5.93;;;2.63;;
16248;SDS011;8232;51.678;6.610;2022-10-16T02:37:31;3.60;;;2.10;;
16248;SDS011;8232;51.678;6.610;2022-10-16T02:39:58;3.17;;;2.38;;
16248;SDS011;8232;51.678;6.610;2022-10-16T02:42:31;3.58;;;2.30;;
16248;SDS011;8232;51.678;6.610;2022-10-16T02:44:59;3.08;;;2.17;;
16248;SDS011;8232;51.678;6.610;2022-10-16T02:47:26;2.70;;;2.13;;
16248;SDS011;8232;51.678;6.610;2022-10-16T02:49:53;3.03;;;2.50;;
16248;SDS011;8232;51.678;6.610;2022-10-16T02:52:20;4.18;;;2.47;;
16248;SDS011;8232;51.678;6.610;2022-10-16T02:54:47;7.78;;;2.58;;
16248;SDS011;8232;51.678;6.610;2022-10-16T02:57:13;3.70;;;2.40;;
16248;SDS011;8232;51.678;6.610;2022-10-16T02:59:42;5.57;;;2.63;;
16248;SDS011;8232;51.678;6.610;2022-10-16T03:02:09;5.95;;;2.33;;
16248;SDS011;8232;51.678;6.610;2022-10-16T03:04:36;3.83;;;2.38;;
16248;SDS011;8232;51.678;6.610;2022-10-16T03:07:03;5.32;;;2.47;;
16248;SDS011;8232;51.678;6.610;2022-10-16T03:09:30;3.75;;;2.67;;
16248;SDS011;8232;51.678;6.610;2022-10-16T03:11:56;6.55;;;2.40;;
16248;SDS011;8232;51.678;6.610;2022-10-16T03:14:23;4.55;;;2.20;;
16248;SDS011;8232;51.678;6.610;2022-10-16T03:16:51;5.43;;;2.47;;
16248;SDS011;8232;51.678;6.610;2022-10-16T03:19:18;7.15;;;2.33;;
16248;SDS011;8232;51.678;6.610;2022-10-16T03:21:45;3.03;;;2.03;;
16248;SDS011;8232;51.678;6.610;2022-10-16T03:24:12;4.22;;;2.30;;
16248;SDS011;8232;51.678;6.610;2022-10-16T03:26:39;2.42;;;2.10;;
16248;SDS011;8232;51.678;6.610;2022-10-16T03:29:05;3.15;;;2.30;;
16248;SDS011;8232;51.678;6.610;2022-10-16T03:31:32;2.30;;;2.10;;
16248;SDS011;8232;51.678;6.610;2022-10-16T03:34:01;2.85;;;2.33;;
16248;SDS011;8232;51.678;6.610;2022-10-16T03:36:27;2.85;;;2.22;;
16248;SDS011;8232;51.678;6.610;2022-10-16T03:38:54;5.90;;;2.40;;
16248;SDS011;8232;51.678;6.610;2022-10-16T03:41:21;4.75;;;2.53;;
16248;SDS011;8232;51.678;6.610;2022-10-16T03:43:48;3.78;;;2.88;;
16248;SDS011;8232;51.678;6.610;2022-10-16T03:46:15;5.15;;;2.55;;
16248;SDS011;8232;51.678;6.610;2022-10-16T03:48:41;3.10;;;2.33;;
16248;SDS011;8232;51.678;6.610;2022-10-16T03:51:09;4.22;;;2.40;;
16248;SDS011;8232;51.678;6.610;2022-10-16T03:53:36;3.28;;;2.60;;
16248;SDS011;8232;51.678;6.610;2022-10-16T03:56:03;4.63;;;2.60;;
16248;SDS011;8232;51.678;6.610;2022-10-16T03:58:30;3.45;;;2.08;;
16248;SDS011;8232;51.678;6.610;2022-10-16T04:00:57;4.68;;;2.35;;
16248;SDS011;8232;51.678;6.610;2022-10-16T04:03:24;4.85;;;2.38;;
16248;SDS011;8232;51.678;6.610;2022-10-16T04:05:51;3.70;;;1.90;;
16248;SDS011;8232;51.678;6.610;2022-10-16T04:08:19;3.63;;;1.80;;
16248;SDS011;8232;51.678;6.610;2022-10-16T04:10:46;3.85;;;2.17;;
16248;SDS011;8232;51.678;6.610;2022-10-16T04:13:12;5.35;;;1.70;;
16248;SDS011;8232;51.678;6.610;2022-10-16T04:15:41;4.03;;;1.80;;
16248;SDS011;8232;51.678;6.610;2022-10-16T04:18:07;3.67;;;1.75;;
16248;SDS011;8232;51.678;6.610;2022-10-16T04:20:34;2.85;;;1.73;;
16248;SDS011;8232;51.678;6.610;2022-10-16T04:23:01;4.28;;;1.73;;
16248;SDS011;8232;51.678;6.610;2022-10-16T04:25:29;4.38;;;1.80;;
16248;SDS011;8232;51.678;6.610;2022-10-16T04:27:56;3.70;;;1.70;;
16248;SDS011;8232;51.678;6.610;2022-10-16T04:30:23;5.80;;;1.63;;
16248;SDS011;8232;51.678;6.610;2022-10-16T04:32:51;6.85;;;1.73;;
16248;SDS011;8232;51.678;6.610;2022-10-16T04:35:19;1.95;;;1.65;;
16248;SDS011;8232;51.678;6.610;2022-10-16T04:37:46;3.83;;;1.70;;
16248;SDS011;8232;51.678;6.610;2022-10-16T04:40:13;3.15;;;1.70;;
16248;SDS011;8232;51.678;6.610;2022-10-16T04:42:42;2.63;;;1.85;;
16248;SDS011;8232;51.678;6.610;2022-10-16T04:45:08;3.72;;;1.73;;
16248;SDS011;8232;51.678;6.610;2022-10-16T04:47:35;2.95;;;1.58;;
16248;SDS011;8232;51.678;6.610;2022-10-16T04:50:02;2.90;;;1.40;;
16248;SDS011;8232;51.678;6.610;2022-10-16T04:52:30;1.80;;;1.67;;
16248;SDS011;8232;51.678;6.610;2022-10-16T04:54:57;2.47;;;1.67;;
16248;SDS011;8232;51.678;6.610;2022-10-16T04:57:26;2.05;;;1.70;;
16248;SDS011;8232;51.678;6.610;2022-10-16T04:59:55;2.08;;;1.52;;
16248;SDS011;8232;51.678;6.610;2022-10-16T05:02:22;2.30;;;1.73;;
16248;SDS011;8232;51.678;6.610;2022-10-16T05:04:48;5.57;;;1.70;;
16248;SDS011;8232;51.678;6.610;2022-10-16T05:07:15;4.22;;;1.75;;
16248;SDS011;8232;51.678;6.610;2022-10-16T05:09:42;3.80;;;1.60;;
16248;SDS011;8232;51.678;6.610;2022-10-16T05:12:09;4.82;;;1.55;;
16248;SDS011;8232;51.678;6.610;2022-10-16T05:14:35;4.90;;;1.63;;
16248;SDS011;8232;51.678;6.610;2022-10-16T05:17:04;2.90;;;1.98;;
16248;SDS011;8232;51.678;6.610;2022-10-16T05:19:30;3.72;;;1.55;;
16248;SDS011;8232;51.678;6.610;2022-10-16T05:21:57;5.20;;;1.70;;
16248;SDS011;8232;51.678;6.610;2022-10-16T05:24:24;2.25;;;1.45;;
16248;SDS011;8232;51.678;6.610;2022-10-16T05:26:51;3.60;;;1.63;;
16248;SDS011;8232;51.678;6.610;2022-10-16T05:29:18;6.60;;;1.90;;
16248;SDS011;8232;51.678;6.610;2022-10-16T05:31:45;6.95;;;1.65;;
16248;SDS011;8232;51.678;6.610;2022-10-16T05:34:13;2.15;;;1.70;;
16248;SDS011;8232;51.678;6.610;2022-10-16T05:36:40;3.05;;;1.75;;
16248;SDS011;8232;51.678;6.610;2022-10-16T05:39:07;3.28;;;1.60;;
16248;SDS011;8232;51.678;6.610;2022-10-16T05:41:33;1.83;;;1.60;;
16248;SDS011;8232;51.678;6.610;2022-10-16T05:44:03;3.50;;;1.70;;
16248;SDS011;8232;51.678;6.610;2022-10-16T05:46:30;1.75;;;1.52;;
16248;SDS011;8232;51.678;6.610;2022-10-16T05:48:57;2.40;;;1.58;;
16248;SDS011;8232;51.678;6.610;2022-10-16T05:51:25;7.05;;;1.83;;
16248;SDS011;8232;51.678;6.610;2022-10-16T05:53:52;3.42;;;1.80;;
16248;SDS011;8232;51.678;6.610;2022-10-16T05:56:19;1.95;;;1.38;;
16248;SDS011;8232;51.678;6.610;2022-10-16T05:58:46;2.53;;;1.75;;
16248;SDS011;8232;51.678;6.610;2022-10-16T06:01:13;1.95;;;1.75;;
16248;SDS011;8232;51.678;6.610;2022-10-16T06:03:41;1.83;;;1.50;;
16248;SDS011;8232;51.678;6.610;2022-10-16T06:06:09;2.92;;;1.73;;
16248;SDS011;8232;51.678;6.610;2022-10-16T06:08:38;3.60;;;1.90;;
16248;SDS011;8232;51.678;6.610;2022-10-16T06:11:05;2.83;;;2.22;;
16248;SDS011;8232;51.678;6.610;2022-10-16T06:13:34;5.07;;;1.70;;
16248;SDS011;8232;51.678;6.610;2022-10-16T06:16:01;3.40;;;1.85;;
16248;SDS011;8232;51.678;6.610;2022-10-16T06:18:29;4.60;;;1.90;;
16248;SDS011;8232;51.678;6.610;2022-10-16T06:20:56;3.50;;;1.73;;
16248;SDS011;8232;51.678;6.610;2022-10-16T06:23:23;5.45;;;1.90;;
16248;SDS011;8232;51.678;6.610;2022-10-16T06:25:52;2.95;;;1.70;;
16248;SDS011;8232;51.678;6.610;2022-10-16T06:28:19;4.40;;;2.08;;
16248;SDS011;8232;51.678;6.610;2022-10-16T06:30:46;5.10;;;1.70;;
16248;SDS011;8232;51.678;6.610;2022-10-16T06:33:13;2.60;;;2.03;;
16248;SDS011;8232;51.678;6.610;2022-10-16T06:35:39;2.58;;;1.95;;
16248;SDS011;8232;51.678;6.610;2022-10-16T06:38:06;4.05;;;1.90;;
16248;SDS011;8232;51.678;6.610;2022-10-16T06:40:33;2.08;;;1.88;;
16248;SDS011;8232;51.678;6.610;2022-10-16T06:43:01;4.40;;;2.00;;
16248;SDS011;8232;51.678;6.610;2022-10-16T06:45:28;2.80;;;1.90;;
16248;SDS011;8232;51.678;6.610;2022-10-16T06:47:55;3.08;;;2.22;;
16248;SDS011;8232;51.678;6.610;2022-10-16T06:50:21;3.22;;;1.98;;
16248;SDS011;8232;51.678;6.610;2022-10-16T06:52:48;2.40;;;2.03;;
16248;SDS011;8232;51.678;6.610;2022-10-16T06:55:15;3.63;;;2.10;;
16248;SDS011;8232;51.678;6.610;2022-10-16T06:57:43;4.95;;;2.25;;
16248;SDS011;8232;51.678;6.610;2022-10-16T07:00:11;4.07;;;2.35;;
16248;SDS011;8232;51.678;6.610;2022-10-16T07:02:38;2.15;;;1.80;;
16248;SDS011;8232;51.678;6.610;2022-10-16T07:05:05;2.67;;;2.05;;
16248;SDS011;8232;51.678;6.610;2022-10-16T07:07:32;4.13;;;2.25;;
16248;SDS011;8232;51.678;6.610;2022-10-16T07:09:59;4.85;;;2.10;;
16248;SDS011;8232;51.678;6.610;2022-10-16T07:12:26;3.60;;;2.35;;
16248;SDS011;8232;51.678;6.610;2022-10-16T07:14:52;4.97;;;2.20;;
16248;SDS011;8232;51.678;6.610;2022-10-16T07:17:22;7.50;;;2.72;;
16248;SDS011;8232;51.678;6.610;2022-10-16T07:19:48;7.50;;;2.50;;
16248;SDS011;8232;51.678;6.610;2022-10-16T07:22:18;5.35;;;2.50;;
16248;SDS011;8232;51.678;6.610;2022-10-16T07:24:44;3.45;;;2.33;;
16248;SDS011;8232;51.678;6.610;2022-10-16T07:27:11;3.63;;;2.10;;
16248;SDS011;8232;51.678;6.610;2022-10-16T07:29:38;3.60;;;2.28;;
16248;SDS011;8232;51.678;6.610;2022-10-16T07:32:05;3.58;;;2.30;;
16248;SDS011;8232;51.678;6.610;2022-10-16T07:34:33;5.35;;;2.22;;
16248;SDS011;8232;51.678;6.610;2022-10-16T07:37:00;6.22;;;2.17;;
16248;SDS011;8232;51.678;6.610;2022-10-16T07:39:27;3.63;;;2.00;;
16248;SDS011;8232;51.678;6.610;2022-10-16T07:41:53;5.72;;;2.28;;
16248;SDS011;8232;51.678;6.610;2022-10-16T07:44:21;3.63;;;2.10;;
16248;SDS011;8232;51.678;6.610;2022-10-16T07:46:47;3.85;;;2.38;;
16248;SDS011;8232;51.678;6.610;2022-10-16T07:49:14;4.05;;;2.28;;
16248;SDS011;8232;51.678;6.610;2022-10-16T07:51:42;2.42;;;2.00;;
16248;SDS011;8232;51.678;6.610;2022-10-16T07:54:09;6.30;;;2.45;;
16248;SDS011;8232;51.678;6.610;2022-10-16T07:56:36;4.90;;;2.25;;
16248;SDS011;8232;51.678;6.610;2022-10-16T07:59:03;3.65;;;2.40;;
16248;SDS011;8232;51.678;6.610;2022-10-16T08:01:29;4.88;;;2.50;;
16248;SDS011;8232;51.678;6.610;2022-10-16T08:03:56;2.97;;;2.00;;
16248;SDS011;8232;51.678;6.610;2022-10-16T08:06:23;4.60;;;2.13;;
16248;SDS011;8232;51.678;6.610;2022-10-16T08:08:51;3.20;;;1.95;;
16248;SDS011;8232;51.678;6.610;2022-10-16T08:11:18;3.80;;;1.95;;
16248;SDS011;8232;51.678;6.610;2022-10-16T08:13:45;5.40;;;2.00;;
16248;SDS011;8232;51.678;6.610;2022-10-16T08:16:12;3.05;;;1.90;;
16248;SDS011;8232;51.678;6.610;2022-10-16T08:18:39;3.13;;;1.70;;
16248;SDS011;8232;51.678;6.610;2022-10-16T08:21:08;6.20;;;2.17;;
16248;SDS011;8232;51.678;6.610;2022-10-16T08:23:39;2.70;;;1.58;;
16248;SDS011;8232;51.678;6.610;2022-10-16T08:26:07;2.00;;;1.17;;
16248;SDS011;8232;51.678;6.610;2022-10-16T08:28:35;4.70;;;1.52;;
16248;SDS011;8232;51.678;6.610;2022-10-16T08:31:05;5.13;;;1.83;;
16248;SDS011;8232;51.678;6.610;2022-10-16T08:33:33;2.05;;;1.50;;
16248;SDS011;8232;51.678;6.610;2022-10-16T08:36:01;2.80;;;1.60;;
16248;SDS011;8232;51.678;6.610;2022-10-16T08:38:28;3.25;;;1.60;;
16248;SDS011;8232;51.678;6.610;2022-10-16T08:40:56;3.70;;;1.40;;
16248;SDS011;8232;51.678;6.610;2022-10-16T08:43:55;4.90;;;1.50;;
16248;SDS011;8232;51.678;6.610;2022-10-16T08:46:38;3.30;;;1.60;;
16248;SDS011;8232;51.678;6.610;2022-10-16T08:49:10;3.60;;;1.55;;
16248;SDS011;8232;51.678;6.610;2022-10-16T08:51:39;3.13;;;1.52;;
16248;SDS011;8232;51.678;6.610;2022-10-16T08:54:21;6.75;;;1.80;;
16248;SDS011;8232;51.678;6.610;2022-10-16T08:56:54;4.55;;;1.63;;
16248;SDS011;8232;51.678;6.610;2022-10-16T08:59:23;4.80;;;1.70;;
16248;SDS011;8232;51.678;6.610;2022-10-16T09:01:50;5.85;;;1.70;;
16248;SDS011;8232;51.678;6.610;2022-10-16T09:07:18;3.65;;;1.70;;
16248;SDS011;8232;51.678;6.610;2022-10-16T09:09:52;4.13;;;1.75;;
16248;SDS011;8232;51.678;6.610;2022-10-16T09:12:28;3.63;;;1.70;;
16248;SDS011;8232;51.678;6.610;2022-10-16T09:15:05;7.40;;;1.58;;
16248;SDS011;8232;51.678;6.610;2022-10-16T09:17:44;2.53;;;1.30;;
16248;SDS011;8232;51.678;6.610;2022-10-16T09:20:19;6.38;;;1.75;;
16248;SDS011;8232;51.678;6.610;2022-10-16T09:22:53;3.78;;;1.60;;
16248;SDS011;8232;51.678;6.610;2022-10-16T09:25:25;4.25;;;1.90;;
16248;SDS011;8232;51.678;6.610;2022-10-16T09:27:52;4.15;;;1.98;;
16248;SDS011;8232;51.678;6.610;2022-10-16T09:30:21;3.33;;;1.42;;
16248;SDS011;8232;51.678;6.610;2022-10-16T09:32:49;2.22;;;1.42;;
16248;SDS011;8232;51.678;6.610;2022-10-16T09:35:19;4.05;;;1.30;;
16248;SDS011;8232;51.678;6.610;2022-10-16T09:37:49;3.30;;;1.52;;
16248;SDS011;8232;51.678;6.610;2022-10-16T09:40:24;3.38;;;1.48;;
16248;SDS011;8232;51.678;6.610;2022-10-16T09:42:56;2.97;;;1.50;;
16248;SDS011;8232;51.678;6.610;2022-10-16T09:45:29;3.80;;;1.58;;
16248;SDS011;8232;51.678;6.610;2022-10-16T09:47:56;3.95;;;1.45;;
16248;SDS011;8232;51.678;6.610;2022-10-16T09:50:24;3.30;;;1.52;;
16248;SDS011;8232;51.678;6.610;2022-10-16T09:53:02;4.70;;;1.70;;
16248;SDS011;8232;51.678;6.610;2022-10-16T09:55:30;5.10;;;1.60;;
16248;SDS011;8232;51.678;6.610;2022-10-16T09:57:57;3.47;;;1.65;;
16248;SDS011;8232;51.678;6.610;2022-10-16T10:00:24;7.13;;;1.67;;
16248;SDS011;8232;51.678;6.610;2022-10-16T10:02:52;5.38;;;1.40;;
16248;SDS011;8232;51.678;6.610;2022-10-16T10:05:21;5.53;;;1.50;;
16248;SDS011;8232;51.678;6.610;2022-10-16T10:07:54;2.25;;;1.30;;
16248;SDS011;8232;51.678;6.610;2022-10-16T10:10:23;4.63;;;1.75;;
16248;SDS011;8232;51.678;6.610;2022-10-16T10:12:52;3.88;;;1.63;;
16248;SDS011;8232;51.678;6.610;2022-10-16T10:15:19;3.55;;;1.50;;
16248;SDS011;8232;51.678;6.610;2022-10-16T10:17:49;5.47;;;1.80;;
16248;SDS011;8232;51.678;6.610;2022-10-16T10:20:25;5.30;;;1.70;;
16248;SDS011;8232;51.678;6.610;2022-10-16T10:22:54;2.75;;;1.42;;
16248;SDS011;8232;51.678;6.610;2022-10-16T10:25:25;5.35;;;1.60;;
16248;SDS011;8232;51.678;6.610;2022-10-16T10:28:10;4.20;;;1.42;;
16248;SDS011;8232;51.678;6.610;2022-10-16T10:30:53;4.15;;;1.40;;
16248;SDS011;8232;51.678;6.610;2022-10-16T10:33:25;4.00;;;1.30;;
16248;SDS011;8232;51.678;6.610;2022-10-16T10:36:00;4.18;;;1.23;;
16248;SDS011;8232;51.678;6.610;2022-10-16T10:38:37;2.33;;;1.08;;
16248;SDS011;8232;51.678;6.610;2022-10-16T10:41:14;2.75;;;1.20;;
16248;SDS011;8232;51.678;6.610;2022-10-16T10:43:55;5.38;;;1.52;;
16248;SDS011;8232;51.678;6.610;2022-10-16T10:46:31;3.03;;;1.60;;
16248;SDS011;8232;51.678;6.610;2022-10-16T10:51:54;4.65;;;1.60;;
16248;SDS011;8232;51.678;6.610;2022-10-16T10:54:34;2.55;;;1.20;;
16248;SDS011;8232;51.678;6.610;2022-10-16T10:57:07;4.57;;;1.33;;
16248;SDS011;8232;51.678;6.610;2022-10-16T10:59:48;3.88;;;1.50;;
16248;SDS011;8232;51.678;6.610;2022-10-16T11:02:32;3.28;;;1.80;;
16248;SDS011;8232;51.678;6.610;2022-10-16T11:05:12;3.63;;;1.17;;
16248;SDS011;8232;51.678;6.610;2022-10-16T11:07:55;6.00;;;1.25;;
16248;SDS011;8232;51.678;6.610;2022-10-16T11:10:27;5.55;;;1.33;;
16248;SDS011;8232;51.678;6.610;2022-10-16T11:12:59;4.45;;;1.67;;
16248;SDS011;8232;51.678;6.610;2022-10-16T11:15:35;5.60;;;1.73;;
16248;SDS011;8232;51.678;6.610;2022-10-16T11:18:05;4.93;;;1.58;;
16248;SDS011;8232;51.678;6.610;2022-10-16T11:20:37;6.25;;;1.80;;
16248;SDS011;8232;51.678;6.610;2022-10-16T11:23:10;5.20;;;1.92;;
16248;SDS011;8232;51.678;6.610;2022-10-16T11:25:42;7.25;;;1.60;;
16248;SDS011;8232;51.678;6.610;2022-10-16T11:28:10;3.75;;;1.45;;
16248;SDS011;8232;51.678;6.610;2022-10-16T11:30:41;4.38;;;1.77;;
16248;SDS011;8232;51.678;6.610;2022-10-16T11:33:20;6.65;;;2.33;;
16248;SDS011;8232;51.678;6.610;2022-10-16T11:35:58;3.78;;;1.77;;
16248;SDS011;8232;51.678;6.610;2022-10-16T11:38:30;5.82;;;1.70;;
16248;SDS011;8232;51.678;6.610;2022-10-16T11:41:02;6.20;;;2.13;;
16248;SDS011;8232;51.678;6.610;2022-10-16T11:43:45;5.50;;;1.70;;
16248;SDS011;8232;51.678;6.610;2022-10-16T11:46:19;5.30;;;1.75;;
16248;SDS011;8232;51.678;6.610;2022-10-16T11:48:49;5.40;;;1.67;;
16248;SDS011;8232;51.678;6.610;2022-10-16T11:51:22;3.72;;;1.35;;
16248;SDS011;8232;51.678;6.610;2022-10-16T11:53:57;4.63;;;1.63;;
16248;SDS011;8232;51.678;6.610;2022-10-16T11:56:28;3.95;;;1.38;;
16248;SDS011;8232;51.678;6.610;2022-10-16T11:58:59;5.15;;;1.73;;
16248;SDS011;8232;51.678;6.610;2022-10-16T12:01:30;3.45;;;1.60;;
16248;SDS011;8232;51.678;6.610;2022-10-16T12:04:06;5.07;;;1.63;;
16248;SDS011;8232;51.678;6.610;2022-10-16T12:06:42;6.28;;;1.83;;
16248;SDS011;8232;51.678;6.610;2022-10-16T12:09:16;3.75;;;1.80;;
16248;SDS011;8232;51.678;6.610;2022-10-16T12:11:48;3.83;;;1.40;;
16248;SDS011;8232;51.678;6.610;2022-10-16T12:14:20;7.28;;;1.75;;
16248;SDS011;8232;51.678;6.610;2022-10-16T12:16:59;7.47;;;1.75;;
16248;SDS011;8232;51.678;6.610;2022-10-16T12:19:28;7.88;;;1.75;;
16248;SDS011;8232;51.678;6.610;2022-10-16T12:21:57;7.57;;;2.08;;
16248;SDS011;8232;51.678;6.610;2022-10-16T12:24:31;6.57;;;2.10;;
16248;SDS011;8232;51.678;6.610;2022-10-16T12:27:01;5.97;;;1.77;;
16248;SDS011;8232;51.678;6.610;2022-10-16T12:29:32;7.68;;;1.90;;
16248;SDS011;8232;51.678;6.610;2022-10-16T12:32:02;6.85;;;1.70;;
16248;SDS011;8232;51.678;6.610;2022-10-16T12:34:33;4.25;;;1.50;;
16248;SDS011;8232;51.678;6.610;2022-10-16T12:37:08;5.38;;;1.75;;
16248;SDS011;8232;51.678;6.610;2022-10-16T12:39:40;5.22;;;1.75;;
16248;SDS011;8232;51.678;6.610;2022-10-16T12:42:19;3.83;;;1.30;;
16248;SDS011;8232;51.678;6.610;2022-10-16T12:44:48;4.70;;;1.45;;
16248;SDS011;8232;51.678;6.610;2022-10-16T12:47:19;7.53;;;2.05;;
16248;SDS011;8232;51.678;6.610;2022-10-16T12:49:49;3.03;;;1.30;;
16248;SDS011;8232;51.678;6.610;2022-10-16T12:52:25;6.40;;;2.08;;
16248;SDS011;8232;51.678;6.610;2022-10-16T12:54:56;3.97;;;1.38;;
16248;SDS011;8232;51.678;6.610;2022-10-16T12:57:37;5.60;;;1.52;;
16248;SDS011;8232;51.678;6.610;2022-10-16T13:00:13;7.18;;;1.55;;
16248;SDS011;8232;51.678;6.610;2022-10-16T13:05:59;6.47;;;1.30;;
16248;SDS011;8232;51.678;6.610;2022-10-16T13:08:49;5.82;;;1.70;;
16248;SDS011;8232;51.678;6.610;2022-10-16T13:11:31;5.00;;;1.30;;
16248;SDS011;8232;51.678;6.610;2022-10-16T13:17:06;8.30;;;1.55;;
16248;SDS011;8232;51.678;6.610;2022-10-16T13:19:43;5.47;;;1.65;;
16248;SDS011;8232;51.678;6.610;2022-10-16T13:22:16;10.10;;;1.55;;
16248;SDS011;8232;51.678;6.610;2022-10-16T13:24:52;7.38;;;1.48;;
16248;SDS011;8232;51.678;6.610;2022-10-16T13:27:31;5.03;;;1.50;;
16248;SDS011;8232;51.678;6.610;2022-10-16T13:30:09;4.88;;;1.42;;
16248;SDS011;8232;51.678;6.610;2022-10-16T13:32:39;6.65;;;1.90;;
16248;SDS011;8232;51.678;6.610;2022-10-16T13:38:05;4.65;;;1.40;;
16248;SDS011;8232;51.678;6.610;2022-10-16T13:40:47;4.97;;;1.90;;
16248;SDS011;8232;51.678;6.610;2022-10-16T13:43:17;4.97;;;2.00;;
16248;SDS011;8232;51.678;6.610;2022-10-16T13:45:52;6.88;;;1.63;;
16248;SDS011;8232;51.678;6.610;2022-10-16T13:48:20;6.57;;;1.40;;
16248;SDS011;8232;51.678;6.610;2022-10-16T13:50:57;6.50;;;1.60;;
16248;SDS011;8232;51.678;6.610;2022-10-16T13:53:29;5.28;;;1.70;;
16248;SDS011;8232;51.678;6.610;2022-10-16T13:55:58;4.93;;;1.65;;
16248;SDS011;8232;51.678;6.610;2022-10-16T13:58:27;3.47;;;1.40;;
16248;SDS011;8232;51.678;6.610;2022-10-16T14:00:55;6.30;;;1.73;;
16248;SDS011;8232;51.678;6.610;2022-10-16T14:03:23;3.90;;;1.33;;
16248;SDS011;8232;51.678;6.610;2022-10-16T14:05:52;5.60;;;1.67;;
16248;SDS011;8232;51.678;6.610;2022-10-16T14:08:20;6.18;;;1.88;;
16248;SDS011;8232;51.678;6.610;2022-10-16T14:10:48;9.10;;;1.80;;
16248;SDS011;8232;51.678;6.610;2022-10-16T14:13:17;6.28;;;1.50;;
16248;SDS011;8232;51.678;6.610;2022-10-16T14:15:47;5.88;;;1.58;;
16248;SDS011;8232;51.678;6.610;2022-10-16T14:18:18;5.05;;;1.50;;
16248;SDS011;8232;51.678;6.610;2022-10-16T14:20:46;4.38;;;1.60;;
16248;SDS011;8232;51.678;6.610;2022-10-16T14:23:19;4.70;;;1.60;;
16248;SDS011;8232;51.678;6.610;2022-10-16T14:25:48;3.55;;;1.40;;
16248;SDS011;8232;51.678;6.610;2022-10-16T14:28:15;5.63;;;1.40;;
16248;SDS011;8232;51.678;6.610;2022-10-16T14:30:52;3.35;;;1.60;;
16248;SDS011;8232;51.678;6.610;2022-10-16T14:33:22;3.75;;;1.40;;
16248;SDS011;8232;51.678;6.610;2022-10-16T14:35:59;3.78;;;1.58;;
16248;SDS011;8232;51.678;6.610;2022-10-16T14:38:28;3.22;;;1.75;;
16248;SDS011;8232;51.678;6.610;2022-10-16T14:40:56;5.75;;;1.35;;
16248;SDS011;8232;51.678;6.610;2022-10-16T14:43:26;1.88;;;1.10;;
16248;SDS011;8232;51.678;6.610;2022-10-16T14:45:59;2.95;;;1.40;;
16248;SDS011;8232;51.678;6.610;2022-10-16T14:48:28;3.75;;;1.30;;
16248;SDS011;8232;51.678;6.610;2022-10-16T14:50:55;2.95;;;1.20;;
16248;SDS011;8232;51.678;6.610;2022-10-16T14:53:22;4.65;;;1.30;;
16248;SDS011;8232;51.678;6.610;2022-10-16T14:55:49;3.78;;;1.48;;
16248;SDS011;8232;51.678;6.610;2022-10-16T14:58:16;6.43;;;1.70;;
16248;SDS011;8232;51.678;6.610;2022-10-16T15:00:45;2.47;;;1.77;;
16248;SDS011;8232;51.678;6.610;2022-10-16T15:03:13;3.92;;;1.83;;
16248;SDS011;8232;51.678;6.610;2022-10-16T15:05:40;4.38;;;1.80;;
16248;SDS011;8232;51.678;6.610;2022-10-16T15:08:07;4.30;;;1.45;;
16248;SDS011;8232;51.678;6.610;2022-10-16T15:10:36;3.67;;;1.65;;
16248;SDS011;8232;51.678;6.610;2022-10-16T15:13:05;3.25;;;1.33;;
16248;SDS011;8232;51.678;6.610;2022-10-16T15:15:33;3.58;;;1.25;;
16248;SDS011;8232;51.678;6.610;2022-10-16T15:18:01;4.47;;;1.27;;
16248;SDS011;8232;51.678;6.610;2022-10-16T15:20:31;2.80;;;1.88;;
16248;SDS011;8232;51.678;6.610;2022-10-16T15:22:59;3.10;;;1.30;;
16248;SDS011;8232;51.678;6.610;2022-10-16T15:25:32;2.92;;;1.35;;
16248;SDS011;8232;51.678;6.610;2022-10-16T15:28:02;2.40;;;1.50;;
16248;SDS011;8232;51.678;6.610;2022-10-16T15:30:30;3.50;;;1.50;;
16248;SDS011;8232;51.678;6.610;2022-10-16T15:32:57;3.75;;;1.60;;